createdAt,value
2018-11-29T00:00:46.151Z,1.00
2018-11-29T00:03:22.313Z,1.00
2018-11-29T00:06:15.749Z,1.00
2018-11-29T00:08:51.841Z,99.90
2018-11-29T00:11:28.212Z,1.00
2018-11-29T00:14:04.510Z,1.00
2018-11-29T00:16:40.674Z,99.90
2018-11-29T00:19:18.294Z,1.00
2018-11-29T00:21:57.175Z,1.00
2018-11-29T00:24:33.705Z,1.00
2018-11-29T00:27:09.808Z,1.00
2018-11-29T00:29:46.066Z,98.30
2018-11-29T00:32:22.164Z,99.90
2018-11-29T00:34:58.359Z,99.90
2018-11-29T00:37:34.665Z,99.90
2018-11-29T00:40:27.511Z,99.90
2018-11-29T00:43:03.628Z,99.90
2018-11-29T00:45:39.719Z,99.90
2018-11-29T00:48:15.854Z,99.70
2018-11-29T00:50:52.056Z,99.90
2018-11-29T00:53:28.154Z,25.50
2018-11-29T00:56:04.417Z,1.00
2018-11-29T00:58:40.617Z,1.00
2018-11-29T01:01:16.904Z,1.00
2018-11-29T01:03:53.141Z,1.00
2018-11-29T01:06:29.294Z,1.00
2018-11-29T01:09:07.959Z,1.00
2018-11-29T01:11:44.266Z,1.00
2018-11-29T01:14:20.651Z,1.00
2018-11-29T01:16:56.737Z,1.00
2018-11-29T01:19:33.049Z,1.00
2018-11-29T01:22:09.221Z,1.00
2018-11-29T01:24:45.431Z,1.00
2018-11-29T01:27:21.755Z,1.00
2018-11-29T01:29:57.792Z,1.00
2018-11-29T01:32:33.731Z,1.00
2018-11-29T01:35:14.056Z,1.00
2018-11-29T01:37:50.320Z,1.00
2018-11-29T01:40:26.536Z,1.00
2018-11-29T01:43:02.498Z,1.00
2018-11-29T01:45:38.757Z,1.00
2018-11-29T01:48:14.822Z,1.00
2018-11-29T01:50:50.987Z,1.00
2018-11-29T01:53:27.227Z,1.00
2018-11-29T01:56:03.287Z,1.00
2018-11-29T01:58:39.690Z,1.00
2018-11-29T02:01:15.635Z,1.00
2018-11-29T02:03:51.799Z,1.00
2018-11-29T02:06:28.961Z,1.00
2018-11-29T02:09:07.046Z,1.00
2018-11-29T02:11:43.529Z,1.00
2018-11-29T02:14:19.726Z,1.00
2018-11-29T02:16:55.677Z,1.00
2018-11-29T02:19:31.795Z,1.00
2018-11-29T02:22:08.453Z,1.00
2018-11-29T02:24:45.091Z,1.00
2018-11-29T02:27:21.335Z,1.00
2018-11-29T02:29:57.587Z,1.00
2018-11-29T02:32:33.595Z,1.00
2018-11-29T02:35:09.820Z,1.00
2018-11-29T02:37:45.929Z,1.00
2018-11-29T02:40:22.007Z,1.00
2018-11-29T02:42:58.223Z,1.00
2018-11-29T02:45:34.273Z,1.00
2018-11-29T02:48:10.256Z,1.00
2018-11-29T02:50:46.739Z,1.00
2018-11-29T02:53:22.899Z,37.50
2018-11-29T02:55:59.005Z,99.90
2018-11-29T02:58:35.205Z,99.90
2018-11-29T03:01:11.354Z,99.90
2018-11-29T03:03:47.394Z,99.90
2018-11-29T03:06:23.463Z,1.00
2018-11-29T03:08:59.783Z,1.00
2018-11-29T03:11:35.895Z,1.00
2018-11-29T03:14:12.096Z,1.00
2018-11-29T03:16:47.965Z,1.00
2018-11-29T03:19:24.072Z,99.90
2018-11-29T03:22:00.050Z,99.90
2018-11-29T03:24:36.173Z,1.00
2018-11-29T03:27:12.203Z,74.20
2018-11-29T03:29:48.218Z,99.90
2018-11-29T03:32:24.207Z,1.00
2018-11-29T03:35:00.438Z,99.90
2018-11-29T03:37:36.409Z,99.90
2018-11-29T03:40:15.535Z,1.00
2018-11-29T03:42:51.720Z,99.90
2018-11-29T03:45:27.852Z,99.90
2018-11-29T03:48:03.872Z,99.90
2018-11-29T03:50:40.092Z,1.00
2018-11-29T03:53:16.285Z,13.20
2018-11-29T03:55:52.556Z,1.00
2018-11-29T03:58:28.464Z,1.00
2018-11-29T04:01:04.814Z,1.00
2018-11-29T04:03:40.799Z,99.90
2018-11-29T04:06:16.876Z,1.00
2018-11-29T04:08:53.458Z,99.90
2018-11-29T04:11:29.836Z,1.00
2018-11-29T04:14:06.282Z,1.00
2018-11-29T04:16:42.483Z,54.80
2018-11-29T04:19:18.621Z,1.00
2018-11-29T04:21:54.819Z,1.10
2018-11-29T04:24:30.975Z,99.90
2018-11-29T04:27:07.125Z,99.90
2018-11-29T04:29:46.658Z,99.90
2018-11-29T04:32:22.725Z,99.90
2018-11-29T04:34:58.629Z,99.90
2018-11-29T04:37:34.888Z,99.90
2018-11-29T04:40:13.275Z,99.90
2018-11-29T04:42:49.375Z,99.90
2018-11-29T04:45:25.416Z,99.90
2018-11-29T04:48:01.504Z,99.90
2018-11-29T04:50:37.473Z,99.90
2018-11-29T04:53:13.520Z,99.90
2018-11-29T04:55:49.720Z,99.90
2018-11-29T04:58:25.756Z,99.90
2018-11-29T05:01:02.025Z,99.90
2018-11-29T05:03:37.876Z,99.90
2018-11-29T05:06:13.976Z,99.90
2018-11-29T05:08:49.872Z,99.90
2018-11-29T05:11:26.072Z,99.90
2018-11-29T05:14:02.394Z,99.90
2018-11-29T05:16:38.635Z,99.90
2018-11-29T05:19:14.804Z,99.90
2018-11-29T05:21:51.744Z,99.90
2018-11-29T05:24:27.975Z,99.90
2018-11-29T05:27:04.013Z,99.90
2018-11-29T05:29:40.080Z,99.90
2018-11-29T05:32:16.016Z,99.90
2018-11-29T05:34:52.231Z,99.90
2018-11-29T05:37:28.143Z,99.90
2018-11-29T05:40:04.381Z,99.90
2018-11-29T05:42:40.418Z,99.90
2018-11-29T05:45:16.504Z,99.90
2018-11-29T05:47:52.812Z,99.90
2018-11-29T05:50:28.875Z,99.90
2018-11-29T05:53:05.036Z,99.90
2018-11-29T05:55:41.466Z,99.90
2018-11-29T05:58:17.812Z,99.90
2018-11-29T06:00:54.009Z,99.90
2018-11-29T06:03:30.084Z,99.90
2018-11-29T06:06:06.802Z,99.90
2018-11-29T06:08:42.704Z,99.90
2018-11-29T06:11:18.936Z,99.90
2018-11-29T06:13:55.098Z,99.90
2018-11-29T06:16:31.133Z,99.90
2018-11-29T06:19:08.679Z,99.90
2018-11-29T06:21:44.867Z,99.90
2018-11-29T06:24:20.894Z,99.90
2018-11-29T06:26:57.017Z,99.90
2018-11-29T06:29:33.062Z,99.90
2018-11-29T06:32:09.218Z,99.90
2018-11-29T06:34:45.247Z,99.90
2018-11-29T06:37:21.485Z,99.90
2018-11-29T06:39:57.395Z,99.90
2018-11-29T06:42:33.349Z,99.90
2018-11-29T06:45:25.012Z,99.90
2018-11-29T06:48:01.061Z,99.90
2018-11-29T06:50:37.400Z,99.90
2018-11-29T06:53:18.557Z,99.90
2018-11-29T06:55:54.652Z,99.90
2018-11-29T06:58:30.428Z,99.90
2018-11-29T07:01:06.507Z,99.90
2018-11-29T07:03:43.360Z,99.90
2018-11-29T07:06:18.646Z,99.90
2018-11-29T07:08:54.769Z,99.90
2018-11-29T07:11:30.837Z,99.90
2018-11-29T07:14:07.016Z,99.90
2018-11-29T07:16:43.086Z,99.90
2018-11-29T07:19:19.395Z,99.90
2018-11-29T07:21:55.900Z,99.90
2018-11-29T07:24:31.963Z,99.90
2018-11-29T07:27:07.976Z,99.90
2018-11-29T07:29:44.155Z,99.90
2018-11-29T07:32:24.393Z,99.90
2018-11-29T07:35:00.572Z,99.90
2018-11-29T07:37:36.275Z,99.90
2018-11-29T07:40:18.684Z,99.90
2018-11-29T07:42:55.557Z,99.90
2018-11-29T07:45:31.553Z,99.90
2018-11-29T07:48:07.572Z,99.90
2018-11-29T07:50:43.702Z,99.90
2018-11-29T07:53:19.733Z,99.90
2018-11-29T07:55:55.899Z,99.90
2018-11-29T07:58:32.113Z,99.90
2018-11-29T08:01:08.339Z,99.90
2018-11-29T08:03:44.460Z,99.90
2018-11-29T08:06:20.645Z,99.90
2018-11-29T08:08:56.745Z,99.90
2018-11-29T08:11:32.707Z,99.90
2018-11-29T08:14:09.022Z,99.90
2018-11-29T08:16:45.072Z,99.90
2018-11-29T08:19:21.137Z,99.90
2018-11-29T08:21:57.034Z,99.90
2018-11-29T08:24:33.030Z,99.90
2018-11-29T08:27:09.155Z,99.90
2018-11-29T08:29:45.176Z,99.90
2018-11-29T08:32:21.813Z,99.90
2018-11-29T08:34:57.954Z,99.90
2018-11-29T08:37:34.046Z,99.90
2018-11-29T08:40:12.422Z,99.90
2018-11-29T08:42:48.537Z,99.90
2018-11-29T08:45:24.411Z,99.90
2018-11-29T08:48:00.474Z,99.90
2018-11-29T08:50:36.596Z,99.90
2018-11-29T08:53:12.752Z,99.90
2018-11-29T08:55:48.621Z,99.90
2018-11-29T08:58:24.902Z,99.90
2018-11-29T09:01:00.922Z,99.90
2018-11-29T09:03:37.323Z,99.90
2018-11-29T09:06:13.267Z,99.90
2018-11-29T09:08:49.475Z,99.90
2018-11-29T09:11:25.627Z,99.90
2018-11-29T09:14:01.735Z,99.90
2018-11-29T09:16:37.777Z,99.90
2018-11-29T09:19:13.898Z,99.90
2018-11-29T09:21:50.012Z,99.90
2018-11-29T09:24:26.073Z,99.90
2018-11-29T09:27:02.048Z,99.90
2018-11-29T09:29:38.244Z,99.90
2018-11-29T09:32:14.309Z,99.90
2018-11-29T09:34:50.284Z,99.90
2018-11-29T09:37:26.318Z,99.90
2018-11-29T09:40:02.380Z,99.90
2018-11-29T09:42:38.701Z,99.90
2018-11-29T09:45:16.758Z,99.90
2018-11-29T09:47:54.405Z,99.90
2018-11-29T09:50:30.421Z,99.90
2018-11-29T09:53:06.682Z,99.90
2018-11-29T09:55:42.576Z,99.90
2018-11-29T09:58:18.525Z,99.90
2018-11-29T10:00:54.482Z,99.90
2018-11-29T10:03:30.384Z,99.90
2018-11-29T10:06:06.885Z,99.90
2018-11-29T10:08:42.838Z,99.90
2018-11-29T10:11:18.689Z,99.90
2018-11-29T10:13:54.793Z,99.90
2018-11-29T10:16:30.991Z,99.90
2018-11-29T10:19:07.042Z,99.90
2018-11-29T10:21:43.158Z,99.90
2018-11-29T10:24:19.074Z,99.90
2018-11-29T10:26:55.345Z,99.90
2018-11-29T10:29:32.220Z,99.90
2018-11-29T10:32:07.303Z,99.90
2018-11-29T10:34:43.504Z,99.90
2018-11-29T10:37:19.431Z,99.90
2018-11-29T10:39:55.188Z,99.90
2018-11-29T10:42:31.406Z,99.90
2018-11-29T10:45:11.187Z,99.90
2018-11-29T10:47:52.434Z,99.90
2018-11-29T10:50:25.737Z,99.90
2018-11-29T10:53:01.681Z,99.90
2018-11-29T10:55:37.888Z,99.90
2018-11-29T10:58:13.727Z,99.90
2018-11-29T11:00:54.746Z,99.90
2018-11-29T11:03:30.748Z,99.90
2018-11-29T11:06:07.144Z,99.90
2018-11-29T11:08:42.932Z,99.90
2018-11-29T11:11:19.142Z,99.90
2018-11-29T11:13:54.993Z,99.90
2018-11-29T11:16:31.204Z,99.90
2018-11-29T11:19:07.277Z,99.90
2018-11-29T11:21:43.106Z,99.90
2018-11-29T11:24:18.934Z,99.90
2018-11-29T11:26:54.982Z,99.90
2018-11-29T11:29:31.030Z,99.90
2018-11-29T11:32:07.444Z,99.90
2018-11-29T11:34:43.346Z,99.90
2018-11-29T11:37:19.233Z,99.90
2018-11-29T11:39:55.214Z,99.90
2018-11-29T11:42:31.167Z,99.90
2018-11-29T11:45:16.534Z,99.90
2018-11-29T11:47:52.695Z,99.90
2018-11-29T11:50:28.801Z,99.90
2018-11-29T11:53:05.025Z,99.90
2018-11-29T11:55:40.999Z,99.90
2018-11-29T11:58:16.695Z,99.90
2018-11-29T12:00:52.655Z,99.90
2018-11-29T12:03:28.743Z,99.90
2018-11-29T12:06:04.673Z,99.90
2018-11-29T12:08:40.786Z,99.90
2018-11-29T12:11:16.732Z,99.90
2018-11-29T12:13:52.545Z,99.90
2018-11-29T12:16:28.713Z,99.90
2018-11-29T12:19:04.814Z,99.90
2018-11-29T12:21:45.509Z,99.90
2018-11-29T12:24:21.943Z,99.90
2018-11-29T12:26:58.118Z,99.90
2018-11-29T12:29:35.568Z,99.90
2018-11-29T12:32:12.317Z,99.90
2018-11-29T12:34:48.694Z,99.90
2018-11-29T12:37:24.859Z,99.90
2018-11-29T12:40:01.564Z,99.90
2018-11-29T12:42:37.714Z,99.90
2018-11-29T12:45:14.764Z,99.90
2018-11-29T12:47:50.975Z,99.90
2018-11-29T12:50:27.805Z,99.90
2018-11-29T12:53:03.815Z,99.90
2018-11-29T12:55:42.288Z,99.90
2018-11-29T12:58:18.334Z,99.90
2018-11-29T13:00:54.325Z,99.90
2018-11-29T13:03:30.472Z,99.90
2018-11-29T13:06:07.071Z,99.90
2018-11-29T13:08:43.400Z,99.90
2018-11-29T13:11:19.396Z,99.90
2018-11-29T13:13:55.759Z,99.90
2018-11-29T13:16:32.023Z,99.90
2018-11-29T13:19:07.724Z,99.90
2018-11-29T13:21:43.503Z,99.90
2018-11-29T13:24:19.410Z,99.90
2018-11-29T13:26:55.471Z,99.90
2018-11-29T13:29:31.519Z,99.90
2018-11-29T13:32:07.581Z,99.90
2018-11-29T13:34:43.461Z,99.90
2018-11-29T13:37:20.730Z,99.90
2018-11-29T13:39:57.921Z,99.90
2018-11-29T13:42:35.453Z,99.90
2018-11-29T13:45:11.928Z,99.90
2018-11-29T13:47:49.144Z,99.90
2018-11-29T13:50:25.367Z,99.90
2018-11-29T13:53:01.554Z,99.90
2018-11-29T13:55:37.618Z,99.90
2018-11-29T13:58:13.548Z,99.90
2018-11-29T14:00:50.325Z,99.90
2018-11-29T14:03:26.064Z,99.90
2018-11-29T14:06:02.096Z,99.90
2018-11-29T14:08:37.985Z,99.90
2018-11-29T14:11:14.009Z,99.90
2018-11-29T14:13:50.360Z,99.90
2018-11-29T14:16:26.133Z,99.90
2018-11-29T14:19:02.220Z,99.90
2018-11-29T14:21:38.275Z,99.90
2018-11-29T14:24:14.404Z,99.90
2018-11-29T14:26:50.471Z,99.90
2018-11-29T14:29:26.490Z,99.90
2018-11-29T14:32:02.708Z,99.90
2018-11-29T14:34:38.715Z,99.90
2018-11-29T14:37:14.862Z,99.90
2018-11-29T14:39:51.163Z,99.90
2018-11-29T14:42:27.226Z,99.90
2018-11-29T14:45:03.494Z,99.90
2018-11-29T14:47:39.493Z,99.90
2018-11-29T14:50:21.822Z,99.90
2018-11-29T14:52:57.788Z,99.90
2018-11-29T14:55:33.697Z,99.90
2018-11-29T14:58:11.270Z,99.90
2018-11-29T15:00:47.260Z,99.90
2018-11-29T15:03:23.916Z,99.90
2018-11-29T15:05:59.874Z,99.90
2018-11-29T15:08:36.244Z,99.90
2018-11-29T15:11:12.190Z,99.90
2018-11-29T15:13:48.105Z,99.90
2018-11-29T15:16:24.310Z,99.90
2018-11-29T15:19:00.197Z,99.90
2018-11-29T15:21:36.348Z,99.90
2018-11-29T15:24:12.511Z,99.90
2018-11-29T15:26:48.666Z,99.90
2018-11-29T15:29:24.891Z,99.90
2018-11-29T15:32:00.962Z,99.90
2018-11-29T15:34:37.087Z,99.90
2018-11-29T15:37:13.357Z,99.90
2018-11-29T15:39:49.234Z,99.90
2018-11-29T15:42:25.303Z,99.90
2018-11-29T15:45:01.693Z,99.90
2018-11-29T15:47:37.703Z,99.90
2018-11-29T15:50:14.575Z,99.90
2018-11-29T15:52:50.672Z,99.90
2018-11-29T15:55:27.199Z,99.90
2018-11-29T15:58:03.283Z,99.90
2018-11-29T16:00:39.314Z,99.90
2018-11-29T16:03:15.330Z,99.90
2018-11-29T16:05:51.316Z,99.90
2018-11-29T16:08:27.235Z,99.90
2018-11-29T16:11:03.500Z,99.90
2018-11-29T16:13:39.336Z,99.90
2018-11-29T16:16:15.417Z,99.90
2018-11-29T16:18:51.660Z,99.90
2018-11-29T16:21:27.531Z,99.90
2018-11-29T16:24:03.992Z,99.90
2018-11-29T16:26:39.952Z,99.90
2018-11-29T16:29:16.146Z,99.90
2018-11-29T16:31:52.231Z,99.90
2018-11-29T16:34:28.467Z,99.90
2018-11-29T16:37:04.400Z,99.90
2018-11-29T16:39:40.584Z,99.90
2018-11-29T16:42:16.596Z,99.90
2018-11-29T16:44:52.644Z,99.90
2018-11-29T16:47:28.837Z,99.90
2018-11-29T16:50:05.388Z,99.90
2018-11-29T16:52:41.325Z,99.90
2018-11-29T16:55:17.357Z,99.90
2018-11-29T16:57:55.272Z,99.90
2018-11-29T17:00:31.184Z,99.90
2018-11-29T17:03:07.363Z,99.90
2018-11-29T17:05:43.423Z,99.90
2018-11-29T17:08:19.592Z,99.90
2018-11-29T17:10:55.728Z,99.90
2018-11-29T17:13:31.659Z,99.90
2018-11-29T17:16:07.945Z,99.90
2018-11-29T17:18:44.128Z,99.90
2018-11-29T17:21:20.087Z,99.90
2018-11-29T17:23:56.362Z,99.90
2018-11-29T17:26:32.382Z,99.90
2018-11-29T17:29:08.315Z,99.90
2018-11-29T17:31:44.188Z,99.90
2018-11-29T17:34:20.458Z,99.90
2018-11-29T17:36:56.428Z,99.90
2018-11-29T17:39:32.494Z,99.90
2018-11-29T17:42:08.795Z,99.90
2018-11-29T17:44:44.910Z,99.90
2018-11-29T17:47:21.139Z,99.90
2018-11-29T17:49:56.976Z,99.90
2018-11-29T17:52:32.937Z,99.90
2018-11-29T17:55:09.251Z,99.90
2018-11-29T17:57:45.394Z,99.90
2018-11-29T18:00:22.857Z,99.90
2018-11-29T18:03:00.166Z,99.90
2018-11-29T18:05:36.421Z,99.90
2018-11-29T18:08:12.431Z,99.90
2018-11-29T18:10:50.385Z,99.90
2018-11-29T18:13:32.073Z,99.90
2018-11-29T18:16:08.221Z,99.90
2018-11-29T18:18:44.154Z,99.90
2018-11-29T18:21:19.941Z,99.90
2018-11-29T18:23:56.001Z,99.90
2018-11-29T18:26:32.490Z,99.90
2018-11-29T18:29:08.486Z,99.90
2018-11-29T18:31:44.515Z,99.90
2018-11-29T18:34:20.554Z,99.90
2018-11-29T18:36:56.553Z,99.90
2018-11-29T18:39:32.675Z,99.90
2018-11-29T18:42:08.598Z,99.90
2018-11-29T18:44:44.781Z,99.90
2018-11-29T18:47:20.906Z,99.90
2018-11-29T18:49:56.541Z,99.90
2018-11-29T18:52:32.488Z,99.90
2018-11-29T18:55:08.741Z,99.90
2018-11-29T18:57:44.647Z,99.90
2018-11-29T19:00:29.735Z,99.90
2018-11-29T19:03:06.274Z,99.90
2018-11-29T19:05:42.503Z,99.90
2018-11-29T19:08:18.791Z,99.90
2018-11-29T19:10:54.895Z,99.90
2018-11-29T19:13:31.057Z,99.90
2018-11-29T19:16:07.384Z,99.90
2018-11-29T19:18:43.485Z,99.90
2018-11-29T19:21:19.887Z,99.90
2018-11-29T19:23:56.440Z,99.90
2018-11-29T19:26:32.779Z,99.90
2018-11-29T19:29:09.047Z,99.90
2018-11-29T19:31:45.222Z,99.90
2018-11-29T19:34:21.216Z,99.90
2018-11-29T19:36:58.170Z,99.90
2018-11-29T19:39:34.250Z,99.90
2018-11-29T19:42:10.475Z,99.90
2018-11-29T19:44:46.552Z,99.90
2018-11-29T19:47:22.684Z,99.90
2018-11-29T19:49:58.691Z,99.90
2018-11-29T19:52:34.534Z,99.90
2018-11-29T19:55:12.394Z,99.90
2018-11-29T19:57:48.347Z,99.90
2018-11-29T20:00:24.366Z,99.90
2018-11-29T20:03:00.524Z,99.90
2018-11-29T20:05:36.540Z,99.90
2018-11-29T20:08:12.810Z,99.90
2018-11-29T20:10:48.894Z,99.90
2018-11-29T20:13:24.774Z,99.90
2018-11-29T20:16:00.984Z,99.90
2018-11-29T20:18:37.030Z,99.90
2018-11-29T20:21:13.270Z,99.90
2018-11-29T20:23:49.531Z,99.90
2018-11-29T20:26:25.721Z,99.90
2018-11-29T20:29:01.846Z,99.90
2018-11-29T20:31:37.798Z,99.90
2018-11-29T20:34:14.086Z,99.90
2018-11-29T20:36:50.048Z,99.90
2018-11-29T20:39:25.967Z,99.90
2018-11-29T20:42:01.931Z,99.90
2018-11-29T20:44:38.196Z,99.90
2018-11-29T20:47:14.348Z,99.90
2018-11-29T20:49:50.239Z,99.90
2018-11-29T20:52:26.466Z,99.90
2018-11-29T20:55:02.672Z,99.90
2018-11-29T20:57:38.671Z,99.90
2018-11-29T21:00:15.923Z,99.90
2018-11-29T21:02:51.832Z,99.90
2018-11-29T21:05:28.051Z,99.90
2018-11-29T21:08:04.901Z,99.90
2018-11-29T21:10:40.841Z,99.90
2018-11-29T21:13:17.218Z,99.90
2018-11-29T21:15:53.183Z,99.90
2018-11-29T21:18:29.278Z,99.90
2018-11-29T21:21:05.331Z,99.90
2018-11-29T21:23:41.327Z,99.90
2018-11-29T21:26:17.727Z,99.90
2018-11-29T21:28:54.374Z,99.90
2018-11-29T21:31:30.783Z,99.90
2018-11-29T21:34:06.794Z,99.90
2018-11-29T21:36:42.854Z,99.90
2018-11-29T21:39:19.143Z,99.90
2018-11-29T21:41:54.927Z,99.90
2018-11-29T21:44:30.985Z,99.90
2018-11-29T21:47:06.960Z,99.90
2018-11-29T21:49:43.042Z,99.90
2018-11-29T21:52:19.055Z,99.90
2018-11-29T21:54:54.911Z,99.90
2018-11-29T21:57:31.275Z,99.90
2018-11-29T22:00:12.154Z,99.90
2018-11-29T22:02:52.493Z,99.90
2018-11-29T22:05:28.746Z,99.90
2018-11-29T22:08:04.855Z,99.90
2018-11-29T22:10:40.970Z,99.90
2018-11-29T22:13:18.050Z,99.90
2018-11-29T22:15:54.395Z,99.90
2018-11-29T22:18:30.451Z,99.90
2018-11-29T22:21:07.484Z,99.90
2018-11-29T22:23:44.233Z,99.90
2018-11-29T22:26:20.882Z,99.90
2018-11-29T22:29:00.685Z,99.90
2018-11-29T22:31:34.699Z,99.90
2018-11-29T22:34:11.018Z,99.90
2018-11-29T22:36:47.160Z,99.90
2018-11-29T22:39:23.228Z,99.90
2018-11-29T22:41:59.451Z,99.90
2018-11-29T22:44:35.638Z,99.90
2018-11-29T22:47:12.655Z,99.90
2018-11-29T22:49:49.455Z,99.90
2018-11-29T22:52:25.884Z,99.90
2018-11-29T22:55:02.414Z,99.90
2018-11-29T22:57:39.534Z,99.90
2018-11-29T23:00:19.365Z,99.90
2018-11-29T23:02:55.946Z,99.90
2018-11-29T23:05:33.013Z,99.90
2018-11-29T23:08:09.846Z,99.90
2018-11-29T23:10:46.833Z,99.90
2018-11-29T23:13:23.131Z,1.00
2018-11-29T23:15:59.083Z,1.00
2018-11-29T23:18:35.382Z,99.90
2018-11-29T23:21:11.984Z,99.90
2018-11-29T23:23:48.050Z,22.00
2018-11-29T23:26:24.405Z,1.00
2018-11-29T23:29:00.714Z,91.80
2018-11-29T23:31:37.651Z,99.90
2018-11-29T23:34:14.366Z,20.30
2018-11-29T23:36:51.343Z,99.90
2018-11-29T23:39:28.139Z,99.90
2018-11-29T23:42:05.186Z,1.00
2018-11-29T23:44:42.032Z,99.90
2018-11-29T23:47:18.654Z,1.00
2018-11-29T23:49:56.360Z,99.90
2018-11-29T23:52:33.045Z,99.90
2018-11-29T23:55:11.969Z,86.30
2018-11-29T23:57:48.131Z,99.90
